| time (UTC) | temp C | wind direction | speed KPH | gust KPH | rain 1hr cm | rain 24hr cm | rain mn cm | humidity % | barometer mb |
| 20260509123952 | 11 | 204 | 14.5 | 27.4 | 0.00 | 0.00 | 0.00 | 66 | 998.8 |
| 20260509123449 | 10 | 218 | 19.3 | 35.4 | 0.00 | 0.00 | 0.00 | 67 | 998.5 |
| 20260509122945 | 10 | 200 | 19.3 | 24.1 | 0.00 | 0.00 | 0.00 | 67 | 998.8 |
| 20260509122442 | 10 | 208 | 40.2 | 43.5 | 0.00 | 0.00 | 0.00 | 66 | 998.6 |
| 20260509121939 | 10 | 215 | 12.9 | 33.8 | 0.00 | 0.00 | 0.00 | 66 | 998.6 |
| 20260509121436 | 10 | 199 | 22.5 | 43.5 | 0.00 | 0.00 | 0.00 | 65 | 998.8 |
| 20260509120934 | 11 | 188 | 14.5 | 43.5 | 0.00 | 0.00 | 0.00 | 65 | 998.8 |
| 20260509120432 | 10 | 192 | 19.3 | 25.7 | 0.00 | 0.00 | 0.00 | 65 | 998.8 |
| 20260509115929 | 10 | 194 | 12.9 | 29.0 | 0.00 | 0.00 | 0.00 | 64 | 999.0 |
| 20260509115426 | 10 | 206 | 22.5 | 40.2 | 0.00 | 0.00 | 0.00 | 62 | 999.2 |
| 20260509114924 | 10 | 193 | 14.5 | 33.8 | 0.00 | 0.00 | 0.00 | 62 | 998.9 |
| 20260509114422 | 10 | 195 | 6.4 | 20.9 | 0.00 | 0.00 | 0.00 | 61 | 999.0 |
| 20260509113921 | 9 | 196 | 8.0 | 16.1 | 0.00 | 0.00 | 0.00 | 61 | 999.1 |
| 20260509113418 | 9 | 206 | 8.0 | 16.1 | 0.00 | 0.00 | 0.00 | 62 | 998.8 |
| 20260509112915 | 9 | 155 | 12.9 | 19.3 | 0.00 | 0.00 | 0.00 | 62 | 999.0 |
| 20260509112412 | 9 | 196 | 16.1 | 24.1 | 0.00 | 0.00 | 0.00 | 62 | 999.0 |
| 20260509111909 | 9 | 159 | 12.9 | 24.1 | 0.00 | 0.00 | 0.00 | 61 | 998.8 |
| 20260509111406 | 8 | 168 | 12.9 | 27.4 | 0.00 | 0.00 | 0.00 | 61 | 999.2 |
| 20260509110904 | 8 | 188 | 11.3 | 17.7 | 0.00 | 0.00 | 0.00 | 61 | 999.7 |
| 20260509110359 | 8 | 179 | 6.4 | 17.7 | 0.00 | 0.00 | 0.00 | 61 | 999.5 |
| 20260509105858 | 8 | 198 | 16.1 | 25.7 | 0.00 | 0.00 | 0.00 | 60 | 999.7 |
| 20260509105356 | 8 | 182 | 9.7 | 17.7 | 0.00 | 0.00 | 0.00 | 59 | 999.5 |
| 20260509104852 | 8 | 185 | 4.8 | 16.1 | 0.00 | 0.00 | 0.00 | 59 | 999.3 |
| 20260509104349 | 8 | 164 | 14.5 | 17.7 | 0.00 | 0.00 | 0.00 | 58 | 999.4 |
| 20260509103847 | 8 | 206 | 16.1 | 19.3 | 0.00 | 0.00 | 0.00 | 58 | 999.7 |
| 20260509103344 | 8 | 178 | 12.9 | 17.7 | 0.00 | 0.00 | 0.00 | 57 | 999.8 |
| 20260509102843 | 9 | 162 | 8.0 | 20.9 | 0.00 | 0.00 | 0.00 | 57 | 999.8 |
| 20260509102339 | 9 | 185 | 6.4 | 24.1 | 0.00 | 0.00 | 0.00 | 56 | 999.9 |
| 20260509101835 | 9 | 200 | 17.7 | 19.3 | 0.00 | 0.00 | 0.00 | 55 | 999.9 |
| 20260509101331 | 9 | 205 | 11.3 | 22.5 | 0.00 | 0.00 | 0.00 | 55 | 1000.1 |
| 20260509100829 | 9 | 200 | 9.7 | 19.3 | 0.00 | 0.00 | 0.00 | 54 | 1000.1 |
| 20260509100326 | 9 | 190 | 8.0 | 20.9 | 0.00 | 0.00 | 0.00 | 53 | 1000.2 |
| 20260509095823 | 9 | 164 | 9.7 | 16.1 | 0.00 | 0.00 | 0.00 | 51 | 1000.5 |
| 20260509095320 | 9 | 188 | 9.7 | 22.5 | 0.00 | 0.00 | 0.00 | 50 | 1000.3 |
| 20260509094817 | 10 | 195 | 12.9 | 20.9 | 0.00 | 0.00 | 0.00 | 49 | 1000.4 |
| 20260509094314 | 9 | 181 | 16.1 | 27.4 | 0.00 | 0.00 | 0.00 | 49 | 1000.6 |
| 20260509093812 | 10 | 184 | 11.3 | 22.5 | 0.00 | 0.00 | 0.00 | 47 | 1000.5 |
| 20260509093309 | 10 | 207 | 16.1 | 29.0 | 0.00 | 0.00 | 0.00 | 46 | 1000.7 |
| 20260509092807 | 10 | 218 | 20.9 | 25.7 | 0.00 | 0.00 | 0.00 | 45 | 1000.8 |
| 20260509092306 | 10 | 192 | 17.7 | 19.3 | 0.00 | 0.00 | 0.00 | 43 | 1001.0 |
| 20260509091802 | 10 | 187 | 11.3 | 19.3 | 0.00 | 0.00 | 0.00 | 42 | 1000.8 |
| 20260509091259 | 10 | 162 | 8.0 | 19.3 | 0.00 | 0.00 | 0.00 | 41 | 1000.9 |
| 20260509090756 | 10 | 199 | 11.3 | 14.5 | 0.00 | 0.00 | 0.00 | 41 | 1001.0 |
| 20260509090253 | 10 | 207 | 16.1 | 17.7 | 0.00 | 0.00 | 0.00 | 40 | 1001.1 |
| 20260509085751 | 10 | 175 | 6.4 | 12.9 | 0.00 | 0.00 | 0.00 | 40 | 1001.0 |
| 20260509085248 | 10 | 185 | 14.5 | 17.7 | 0.00 | 0.00 | 0.00 | 40 | 1001.0 |
| 20260509084744 | 10 | 199 | 12.9 | 16.1 | 0.00 | 0.00 | 0.00 | 40 | 1001.3 |
| 20260509084241 | 10 | 208 | 14.5 | 20.9 | 0.00 | 0.00 | 0.00 | 40 | 1001.3 |
| 20260509083739 | 10 | 161 | 9.7 | 16.1 | 0.00 | 0.00 | 0.00 | 40 | 1001.2 |
| 20260509083236 | 10 | 171 | 11.3 | 19.3 | 0.00 | 0.00 | 0.00 | 41 | 1001.2 |
| 20260509082732 | 10 | 194 | 16.1 | 17.7 | 0.00 | 0.00 | 0.00 | 42 | 1001.3 |
| 20260509082229 | 10 | 155 | 14.5 | 17.7 | 0.00 | 0.00 | 0.00 | 42 | 1001.4 |
| 20260509081726 | 10 | 155 | 9.7 | 20.9 | 0.00 | 0.00 | 0.00 | 42 | 1001.3 |
| 20260509081223 | 9 | 174 | 8.0 | 19.3 | 0.00 | 0.00 | 0.00 | 43 | 1001.4 |
| 20260509080721 | 9 | 182 | 8.0 | 19.3 | 0.00 | 0.00 | 0.00 | 43 | 1001.4 |
| 20260509080219 | 10 | 197 | 8.0 | 14.5 | 0.00 | 0.00 | 0.00 | 43 | 1001.4 |
| 20260509075717 | 10 | 179 | 9.7 | 12.9 | 0.00 | 0.00 | 0.00 | 42 | 1001.5 |
| 20260509075214 | 10 | 177 | 6.4 | 20.9 | 0.00 | 0.00 | 0.00 | 42 | 1001.8 |
| 20260509074711 | 10 | 213 | 25.7 | 27.4 | 0.00 | 0.00 | 0.00 | 43 | 1001.8 |
| 20260509074208 | 9 | 166 | 12.9 | 17.7 | 0.00 | 0.00 | 0.00 | 43 | 1002.1 |
| 20260509073704 | 9 | 153 | 9.7 | 14.5 | 0.00 | 0.00 | 0.00 | 44 | 1001.8 |
| 20260509073201 | 9 | 179 | 14.5 | 19.3 | 0.00 | 0.00 | 0.00 | 43 | 1002.2 |
| 20260509072658 | 9 | 204 | 12.9 | 17.7 | 0.00 | 0.00 | 0.00 | 43 | 1002.3 |
| 20260509072155 | 9 | 187 | 9.7 | 19.3 | 0.00 | 0.00 | 0.00 | 44 | 1002.2 |
| 20260509071651 | 9 | 169 | 6.4 | 16.1 | 0.00 | 0.00 | 0.00 | 44 | 1002.3 |
| 20260509071148 | 9 | 191 | 11.3 | 17.7 | 0.00 | 0.00 | 0.00 | 44 | 1002.7 |
| 20260509070645 | 9 | 170 | 6.4 | 14.5 | 0.00 | 0.00 | 0.00 | 45 | 1002.7 |
| 20260509070141 | 9 | 156 | 11.3 | 16.1 | 0.00 | 0.00 | 0.00 | 46 | 1002.7 |
| 20260509065637 | 8 | 176 | 9.7 | 12.9 | 0.00 | 0.00 | 0.00 | 46 | 1003.0 |
| 20260509065133 | 8 | 177 | 4.8 | 16.1 | 0.00 | 0.00 | 0.00 | 47 | 1003.0 |
| 20260509064631 | 8 | 150 | 12.9 | 12.9 | 0.00 | 0.00 | 0.00 | 46 | 1002.9 |
| 20260509064129 | 8 | 145 | 6.4 | 11.3 | 0.00 | 0.00 | 0.00 | 46 | 1002.9 |
| 20260509063625 | 8 | 151 | 8.0 | 9.7 | 0.00 | 0.00 | 0.00 | 45 | 1003.2 |
| 20260509063122 | 8 | 149 | 6.4 | 9.7 | 0.00 | 0.00 | 0.00 | 45 | 1003.2 |
| 20260509062620 | 9 | 148 | 11.3 | 12.9 | 0.00 | 0.00 | 0.00 | 44 | 1003.1 |
| 20260509062116 | 9 | 154 | 9.7 | 9.7 | 0.00 | 0.00 | 0.00 | 43 | 1003.5 |
| 20260509061613 | 10 | 179 | 8.0 | 12.9 | 0.00 | 0.00 | 0.00 | 42 | 1003.4 |
| 20260509061111 | 10 | 172 | 8.0 | 11.3 | 0.00 | 0.00 | 0.00 | 42 | 1003.5 |
| 20260509060608 | 10 | 183 | 6.4 | 17.7 | 0.00 | 0.00 | 0.00 | 42 | 1003.5 |
| 20260509060103 | 10 | 140 | 6.4 | 14.5 | 0.00 | 0.00 | 0.00 | 42 | 1003.6 |
| 20260509055559 | 10 | 198 | 6.4 | 9.7 | 0.00 | 0.00 | 0.00 | 41 | 1003.7 |
| 20260509055055 | 10 | 179 | 6.4 | 12.9 | 0.00 | 0.00 | 0.00 | 41 | 1003.8 |
| 20260509054552 | 10 | 176 | 3.2 | 9.7 | 0.00 | 0.00 | 0.00 | 41 | 1004.0 |
| 20260509054050 | 10 | 177 | 4.8 | 8.0 | 0.00 | 0.00 | 0.00 | 40 | 1003.8 |
| 20260509053549 | 11 | 200 | 9.7 | 11.3 | 0.00 | 0.00 | 0.00 | 39 | 1003.9 |
| 20260509053045 | 11 | 169 | 8.0 | 14.5 | 0.00 | 0.00 | 0.00 | 39 | 1004.0 |
| 20260509052543 | 11 | 181 | 8.0 | 12.9 | 0.00 | 0.00 | 0.00 | 39 | 1004.2 |
| 20260509052041 | 11 | 183 | 9.7 | 16.1 | 0.00 | 0.00 | 0.00 | 37 | 1004.2 |
| 20260509051538 | 11 | 185 | 4.8 | 9.7 | 0.00 | 0.00 | 0.00 | 38 | 1004.1 |
| 20260509051035 | 11 | 217 | 8.0 | 8.0 | 0.00 | 0.00 | 0.00 | 40 | 1004.5 |
| 20260509050532 | 11 | 217 | 11.3 | 22.5 | 0.00 | 0.00 | 0.00 | 40 | 1004.5 |
| 20260509050028 | 11 | 220 | 12.9 | 24.1 | 0.00 | 0.00 | 0.00 | 40 | 1004.8 |
| 20260509045526 | 11 | 201 | 9.7 | 25.7 | 0.00 | 0.00 | 0.00 | 41 | 1004.8 |
| 20260509045023 | 10 | 196 | 6.4 | 19.3 | 0.00 | 0.00 | 0.00 | 43 | 1004.7 |
| 20260509044521 | 9 | 208 | 14.5 | 16.1 | 0.00 | 0.00 | 0.00 | 46 | 1004.5 |
| 20260509044018 | 8 | 180 | 4.8 | 9.7 | 0.00 | 0.00 | 0.00 | 52 | 1004.5 |
| 20260509043514 | 7 | 193 | 4.8 | 8.0 | 0.00 | 0.00 | 0.00 | 57 | 1004.6 |
| 20260509043010 | 7 | 149 | 3.2 | 4.8 | 0.00 | 0.00 | 0.00 | 65 | 1004.8 |
| 20260509042506 | 6 | 120 | 3.2 | 3.2 | 0.00 | 0.00 | 0.00 | 68 | 1004.7 |
| 20260509042002 | 7 | 121 | 3.2 | 3.2 | 0.00 | 0.00 | 0.00 | 66 | 1004.7 |
| 20260509041459 | 7 | 146 | 3.2 | 3.2 | 0.00 | 0.00 | 0.00 | 65 | 1004.7 |
| 20260509040957 | 7 | 121 | 3.2 | 3.2 | 0.00 | 0.00 | 0.00 | 65 | 1004.9 |
| 20260509040455 | 7 | 154 | 4.8 | 4.8 | 0.00 | 0.00 | 0.00 | 61 | 1005.1 |
| 20260509035951 | 7 | 131 | 4.8 | 6.4 | 0.00 | 0.00 | 0.00 | 63 | 1004.8 |
| 20260509035448 | 7 | 132 | 3.2 | 6.4 | 0.00 | 0.00 | 0.00 | 60 | 1005.1 |
| 20260509034945 | 7 | 157 | 3.2 | 3.2 | 0.00 | 0.00 | 0.00 | 58 | 1005.1 |
| 20260509034443 | 7 | 156 | 3.2 | 4.8 | 0.00 | 0.00 | 0.00 | 60 | 1005.1 |
| 20260509033939 | 7 | 113 | 3.2 | 3.2 | 0.00 | 0.00 | 0.00 | 56 | 1005.3 |
| 20260509033437 | 7 | 128 | 3.2 | 4.8 | 0.00 | 0.00 | 0.00 | 55 | 1005.3 |
| 20260509032933 | 7 | 109 | 3.2 | 4.8 | 0.00 | 0.00 | 0.00 | 56 | 1005.3 |
| 20260509032431 | 7 | 128 | 3.2 | 3.2 | 0.00 | 0.00 | 0.00 | 61 | 1005.3 |
| 20260509031928 | 7 | 121 | 3.2 | 4.8 | 0.00 | 0.00 | 0.00 | 54 | 1005.3 |
| 20260509031425 | 7 | 113 | 3.2 | 4.8 | 0.00 | 0.00 | 0.00 | 56 | 1005.5 |
| 20260509030923 | 7 | 123 | 3.2 | 4.8 | 0.00 | 0.00 | 0.00 | 59 | 1005.8 |
| 20260509030421 | 8 | 116 | 3.2 | 4.8 | 0.00 | 0.00 | 0.00 | 55 | 1005.6 |
| 20260509025918 | 8 | 127 | 3.2 | 4.8 | 0.00 | 0.00 | 0.00 | 56 | 1005.6 |
| 20260509025413 | 8 | 117 | 3.2 | 3.2 | 0.00 | 0.00 | 0.00 | 54 | 1005.7 |
| 20260509024908 | 8 | 153 | 4.8 | 4.8 | 0.00 | 0.00 | 0.00 | 54 | 1005.7 |
| 20260509024405 | 9 | 120 | 3.2 | 6.4 | 0.00 | 0.00 | 0.00 | 48 | 1005.8 |
| 20260509023902 | 9 | 101 | 3.2 | 4.8 | 0.00 | 0.00 | 0.00 | 48 | 1005.8 |
| 20260509023359 | 9 | 70 | 3.2 | 4.8 | 0.00 | 0.00 | 0.00 | 48 | 1005.8 |
| 20260509022855 | 9 | 63 | 4.8 | 4.8 | 0.00 | 0.00 | 0.00 | 47 | 1005.9 |
| 20260509022353 | 8 | 66 | 4.8 | 4.8 | 0.00 | 0.00 | 0.00 | 49 | 1005.9 |
| 20260509021850 | 8 | 244 | 3.2 | 3.2 | 0.00 | 0.00 | 0.00 | 52 | 1005.9 |
| 20260509021346 | 8 | 187 | 1.6 | 3.2 | 0.00 | 0.00 | 0.00 | 52 | 1005.9 |
| 20260509020844 | 9 | 113 | 3.2 | 6.4 | 0.00 | 0.00 | 0.00 | 50 | 1005.8 |
| 20260509020343 | 9 | 130 | 3.2 | 4.8 | 0.00 | 0.00 | 0.00 | 48 | 1005.9 |
| 20260509015839 | 10 | 186 | 3.2 | 6.4 | 0.00 | 0.00 | 0.00 | 48 | 1005.9 |
| 20260509015338 | 10 | 126 | 3.2 | 4.8 | 0.00 | 0.00 | 0.00 | 46 | 1005.8 |
| 20260509014834 | 10 | 173 | 3.2 | 9.7 | 0.00 | 0.00 | 0.00 | 50 | 1005.8 |
| 20260509014331 | 10 | 129 | 4.8 | 6.4 | 0.00 | 0.00 | 0.00 | 52 | 1005.9 |
| 20260509013828 | 10 | 96 | 6.4 | 8.0 | 0.00 | 0.00 | 0.00 | 47 | 1005.8 |
| 20260509013324 | 10 | 134 | 3.2 | 4.8 | 0.00 | 0.00 | 0.00 | 52 | 1006.0 |
| 20260509012820 | 10 | 118 | 3.2 | 3.2 | 0.00 | 0.00 | 0.00 | 48 | 1005.7 |
| 20260509012317 | 10 | 123 | 1.6 | 3.2 | 0.00 | 0.00 | 0.00 | 51 | 1005.7 |
| 20260509011815 | 10 | 122 | 3.2 | 4.8 | 0.00 | 0.00 | 0.00 | 44 | 1005.7 |
| 20260509011312 | 10 | 115 | 3.2 | 4.8 | 0.00 | 0.00 | 0.00 | 43 | 1005.6 |
| 20260509010810 | 10 | 120 | 3.2 | 3.2 | 0.00 | 0.00 | 0.00 | 42 | 1005.9 |
| 20260509010307 | 11 | 85 | 3.2 | 4.8 | 0.00 | 0.00 | 0.00 | 45 | 1005.7 |
| 20260509005804 | 11 | 92 | 3.2 | 3.2 | 0.00 | 0.00 | 0.00 | 42 | 1005.8 |
| 20260509005306 | 11 | 109 | 3.2 | 4.8 | 0.00 | 0.00 | 0.00 | 42 | 1005.7 |
| 20260509004801 | 11 | 113 | 4.8 | 4.8 | 0.00 | 0.00 | 0.00 | 41 | 1005.7 |
| 20260509004258 | 11 | 111 | 3.2 | 3.2 | 0.00 | 0.00 | 0.00 | 40 | 1005.7 |
| 20260509003756 | 11 | 105 | 3.2 | 3.2 | 0.00 | 0.00 | 0.00 | 39 | 1005.8 |
| 20260509003253 | 11 | 71 | 3.2 | 4.8 | 0.00 | 0.00 | 0.00 | 40 | 1005.8 |
| 20260509002750 | 12 | 167 | 0.0 | 4.8 | 0.00 | 0.00 | 0.00 | 38 | 1005.5 |
| 20260509002248 | 12 | 205 | 0.0 | 4.8 | 0.00 | 0.00 | 0.00 | 38 | 1005.9 |
| 20260509001746 | 12 | 68 | 1.6 | 4.8 | 0.00 | 0.00 | 0.00 | 39 | 1005.5 |
| 20260509001241 | 12 | 223 | 3.2 | 4.8 | 0.00 | 0.00 | 0.00 | 39 | 1005.8 |
| 20260509000739 | 12 | 7 | 1.6 | 3.2 | 0.00 | 0.00 | 0.00 | 37 | 1005.8 |
| 20260509000236 | 12 | 27 | 3.2 | 6.4 | 0.00 | 0.00 | 0.00 | 38 | 1005.9 |
| 20260508235733 | 12 | 38 | 8.0 | 9.7 | 0.00 | 0.00 | 0.00 | 38 | 1005.7 |
| 20260508235230 | 12 | 277 | 9.7 | 11.3 | 0.00 | 0.00 | 0.00 | 36 | 1005.9 |
| 20260508234727 | 12 | 22 | 3.2 | 8.0 | 0.00 | 0.00 | 0.00 | 37 | 1005.8 |
| 20260508234223 | 12 | 0 | 6.4 | 8.0 | 0.00 | 0.00 | 0.00 | 37 | 1005.8 |
| 20260508233717 | 13 | 340 | 4.8 | 9.7 | 0.00 | 0.00 | 0.00 | 36 | 1005.9 |
| 20260508233215 | 13 | 156 | 0.0 | 8.0 | 0.00 | 0.00 | 0.00 | 35 | 1005.9 |
| 20260508232712 | 13 | 227 | 8.0 | 19.3 | 0.00 | 0.00 | 0.00 | 35 | 1005.9 |
| 20260508232208 | 12 | 214 | 9.7 | 19.3 | 0.00 | 0.00 | 0.00 | 35 | 1005.9 |
| 20260508231706 | 12 | 289 | 1.6 | 9.7 | 0.00 | 0.00 | 0.00 | 36 | 1005.9 |
| 20260508231203 | 12 | 309 | 3.2 | 9.7 | 0.00 | 0.00 | 0.00 | 36 | 1006.0 |
| 20260508230700 | 13 | 235 | 1.6 | 6.4 | 0.00 | 0.00 | 0.00 | 36 | 1006.0 |
| 20260508230156 | 13 | 266 | 3.2 | 8.0 | 0.00 | 0.00 | 0.00 | 35 | 1005.9 |
| 20260508225654 | 13 | 191 | 4.8 | 14.5 | 0.00 | 0.00 | 0.00 | 35 | 1005.9 |
| 20260508225150 | 13 | 277 | 4.8 | 17.7 | 0.00 | 0.00 | 0.00 | 35 | 1005.9 |
| 20260508224648 | 13 | 262 | 6.4 | 14.5 | 0.00 | 0.00 | 0.00 | 34 | 1006.0 |
| 20260508224145 | 13 | 241 | 3.2 | 20.9 | 0.00 | 0.00 | 0.00 | 35 | 1006.0 |
| 20260508223643 | 13 | 221 | 9.7 | 11.3 | 0.00 | 0.00 | 0.00 | 35 | 1006.1 |
| 20260508223140 | 13 | 252 | 3.2 | 14.5 | 0.00 | 0.00 | 0.00 | 36 | 1005.8 |
| 20260508222637 | 13 | 290 | 3.2 | 14.5 | 0.00 | 0.00 | 0.00 | 36 | 1006.1 |
| 20260508222134 | 13 | 315 | 9.7 | 12.9 | 0.00 | 0.00 | 0.00 | 35 | 1006.0 |
| 20260508221630 | 13 | 260 | 14.5 | 17.7 | 0.00 | 0.00 | 0.00 | 36 | 1006.1 |
| 20260508221126 | 13 | 316 | 8.0 | 16.1 | 0.00 | 0.00 | 0.00 | 36 | 1006.1 |
| 20260508220623 | 12 | 244 | 9.7 | 17.7 | 0.00 | 0.00 | 0.00 | 36 | 1006.3 |
| 20260508220119 | 12 | 278 | 16.1 | 17.7 | 0.00 | 0.00 | 0.00 | 37 | 1006.4 |
| 20260508215616 | 12 | 287 | 14.5 | 24.1 | 0.00 | 0.00 | 0.00 | 36 | 1006.4 |
| 20260508215113 | 12 | 253 | 11.3 | 20.9 | 0.00 | 0.00 | 0.00 | 35 | 1006.4 |
| 20260508214610 | 13 | 271 | 9.7 | 16.1 | 0.00 | 0.00 | 0.00 | 36 | 1006.1 |
| 20260508214107 | 13 | 275 | 19.3 | 24.1 | 0.00 | 0.00 | 0.00 | 36 | 1006.1 |
| 20260508213604 | 13 | 276 | 14.5 | 19.3 | 0.00 | 0.00 | 0.00 | 36 | 1006.1 |
| 20260508213100 | 13 | 224 | 6.4 | 14.5 | 0.00 | 0.00 | 0.00 | 36 | 1006.3 |
| 20260508212556 | 13 | 258 | 12.9 | 24.1 | 0.00 | 0.00 | 0.00 | 35 | 1006.4 |
| 20260508212053 | 13 | 331 | 8.0 | 12.9 | 0.00 | 0.00 | 0.00 | 38 | 1006.3 |
| 20260508211548 | 13 | 268 | 12.9 | 30.6 | 0.00 | 0.00 | 0.00 | 37 | 1006.6 |
| 20260508211045 | 13 | 272 | 27.4 | 29.0 | 0.00 | 0.00 | 0.00 | 36 | 1006.4 |
| 20260508210541 | 13 | 301 | 9.7 | 17.7 | 0.00 | 0.00 | 0.00 | 36 | 1006.3 |
| 20260508210039 | 13 | 254 | 8.0 | 22.5 | 0.00 | 0.00 | 0.00 | 36 | 1006.5 |
| 20260508205536 | 13 | 347 | 9.7 | 24.1 | 0.00 | 0.00 | 0.00 | 36 | 1006.4 |
| 20260508205032 | 12 | 287 | 14.5 | 20.9 | 0.00 | 0.00 | 0.00 | 37 | 1006.6 |
| 20260508204529 | 13 | 289 | 14.5 | 16.1 | 0.00 | 0.00 | 0.00 | 36 | 1006.7 |
| 20260508204025 | 13 | 278 | 12.9 | 20.9 | 0.00 | 0.00 | 0.00 | 35 | 1006.6 |
| 20260508203521 | 13 | 181 | 4.8 | 24.1 | 0.00 | 0.00 | 0.00 | 36 | 1006.8 |
| 20260508203017 | 13 | 285 | 19.3 | 25.7 | 0.00 | 0.00 | 0.00 | 36 | 1006.7 |
| 20260508202514 | 12 | 285 | 19.3 | 35.4 | 0.00 | 0.00 | 0.00 | 37 | 1006.7 |
| 20260508202011 | 13 | 328 | 17.7 | 25.7 | 0.00 | 0.00 | 0.00 | 36 | 1006.8 |
| 20260508201508 | 13 | 299 | 4.8 | 17.7 | 0.00 | 0.00 | 0.00 | 35 | 1006.9 |
| 20260508201004 | 12 | 230 | 19.3 | 29.0 | 0.00 | 0.00 | 0.00 | 34 | 1006.9 |
| 20260508200501 | 13 | 248 | 17.7 | 37.0 | 0.00 | 0.00 | 0.00 | 33 | 1007.0 |
| 20260508195956 | 12 | 272 | 4.8 | 29.0 | 0.00 | 0.00 | 0.00 | 35 | 1007.0 |
| 20260508195454 | 13 | 284 | 16.1 | 41.8 | 0.00 | 0.00 | 0.00 | 33 | 1006.8 |
| 20260508194950 | 13 | 308 | 6.4 | 27.4 | 0.00 | 0.00 | 0.00 | 34 | 1007.1 |
| 20260508194447 | 13 | 292 | 29.0 | 33.8 | 0.00 | 0.00 | 0.00 | 33 | 1007.1 |
| 20260508193944 | 12 | 239 | 6.4 | 24.1 | 0.00 | 0.00 | 0.00 | 34 | 1007.0 |
| 20260508193441 | 13 | 243 | 25.7 | 37.0 | 0.00 | 0.00 | 0.00 | 32 | 1007.3 |
| 20260508192937 | 13 | 256 | 11.3 | 25.7 | 0.00 | 0.00 | 0.00 | 32 | 1007.2 |
| 20260508192434 | 12 | 245 | 20.9 | 41.8 | 0.00 | 0.00 | 0.00 | 32 | 1007.1 |
| 20260508191931 | 12 | 231 | 29.0 | 45.1 | 0.00 | 0.00 | 0.00 | 32 | 1007.3 |
| 20260508191428 | 13 | 228 | 16.1 | 33.8 | 0.00 | 0.00 | 0.00 | 32 | 1007.3 |
| 20260508190925 | 12 | 283 | 17.7 | 27.4 | 0.00 | 0.00 | 0.00 | 33 | 1007.3 |
| 20260508190422 | 13 | 285 | 14.5 | 25.7 | 0.00 | 0.00 | 0.00 | 32 | 1007.4 |
| 20260508185918 | 12 | 275 | 17.7 | 32.2 | 0.00 | 0.00 | 0.00 | 33 | 1007.3 |
| 20260508185416 | 12 | 262 | 20.9 | 27.4 | 0.00 | 0.00 | 0.00 | 34 | 1007.5 |
| 20260508184913 | 12 | 264 | 11.3 | 41.8 | 0.00 | 0.00 | 0.00 | 33 | 1007.4 |
| 20260508184410 | 12 | 277 | 16.1 | 19.3 | 0.00 | 0.00 | 0.00 | 35 | 1007.4 |
| 20260508183907 | 12 | 252 | 12.9 | 30.6 | 0.00 | 0.00 | 0.00 | 34 | 1007.6 |
| 20260508183403 | 12 | 299 | 16.1 | 19.3 | 0.00 | 0.00 | 0.00 | 35 | 1007.5 |
| 20260508182859 | 12 | 279 | 12.9 | 14.5 | 0.00 | 0.00 | 0.00 | 35 | 1007.7 |
| 20260508182357 | 12 | 260 | 4.8 | 17.7 | 0.00 | 0.00 | 0.00 | 35 | 1007.6 |
| 20260508181852 | 11 | 273 | 22.5 | 38.6 | 0.00 | 0.00 | 0.00 | 35 | 1007.7 |
| 20260508181349 | 11 | 257 | 22.5 | 30.6 | 0.00 | 0.00 | 0.00 | 35 | 1007.8 |
| 20260508180846 | 12 | 284 | 11.3 | 37.0 | 0.00 | 0.00 | 0.00 | 34 | 1007.9 |
| 20260508180342 | 12 | 289 | 17.7 | 29.0 | 0.00 | 0.00 | 0.00 | 33 | 1007.7 |
| 20260508175838 | 12 | 233 | 16.1 | 22.5 | 0.00 | 0.00 | 0.00 | 36 | 1007.9 |
| 20260508175335 | 11 | 278 | 16.1 | 24.1 | 0.00 | 0.00 | 0.00 | 35 | 1008.1 |
| 20260508174834 | 11 | 260 | 12.9 | 30.6 | 0.00 | 0.00 | 0.00 | 34 | 1008.3 |
| 20260508174331 | 11 | 214 | 6.4 | 22.5 | 0.00 | 0.00 | 0.00 | 36 | 1008.3 |
| 20260508173827 | 11 | 275 | 14.5 | 27.4 | 0.00 | 0.00 | 0.00 | 36 | 1008.4 |
| 20260508173324 | 11 | 281 | 14.5 | 22.5 | 0.00 | 0.00 | 0.00 | 36 | 1008.4 |
| 20260508172820 | 11 | 251 | 12.9 | 27.4 | 0.00 | 0.00 | 0.00 | 36 | 1008.4 |
| 20260508172317 | 11 | 240 | 9.7 | 20.9 | 0.00 | 0.00 | 0.00 | 36 | 1008.5 |
| 20260508171814 | 11 | 223 | 16.1 | 22.5 | 0.00 | 0.00 | 0.00 | 36 | 1008.4 |
| 20260508171310 | 11 | 230 | 12.9 | 25.7 | 0.00 | 0.00 | 0.00 | 37 | 1008.5 |
| 20260508170807 | 11 | 284 | 19.3 | 29.0 | 0.00 | 0.00 | 0.00 | 36 | 1008.6 |
| 20260508170305 | 11 | 281 | 11.3 | 22.5 | 0.00 | 0.00 | 0.00 | 38 | 1008.7 |
| 20260508165801 | 11 | 228 | 8.0 | 17.7 | 0.00 | 0.00 | 0.00 | 38 | 1008.5 |
| 20260508165258 | 10 | 248 | 12.9 | 40.2 | 0.00 | 0.00 | 0.00 | 38 | 1008.8 |
| 20260508164754 | 11 | 270 | 22.5 | 40.2 | 0.00 | 0.00 | 0.00 | 38 | 1008.8 |
| 20260508164251 | 10 | 274 | 27.4 | 32.2 | 0.00 | 0.00 | 0.00 | 37 | 1009.0 |
| 20260508163749 | 10 | 246 | 22.5 | 27.4 | 0.00 | 0.00 | 0.00 | 38 | 1008.9 |
| 20260508163247 | 11 | 249 | 22.5 | 32.2 | 0.00 | 0.00 | 0.00 | 38 | 1009.1 |
| 20260508162742 | 11 | 268 | 12.9 | 33.8 | 0.00 | 0.00 | 0.00 | 39 | 1009.2 |
| 20260508162240 | 10 | 220 | 30.6 | 35.4 | 0.00 | 0.00 | 0.00 | 39 | 1009.1 |
| 20260508161736 | 10 | 233 | 12.9 | 16.1 | 0.00 | 0.00 | 0.00 | 40 | 1009.0 |
| 20260508161234 | 11 | 221 | 12.9 | 24.1 | 0.00 | 0.00 | 0.00 | 39 | 1009.2 |
| 20260508160731 | 10 | 225 | 17.7 | 27.4 | 0.00 | 0.00 | 0.00 | 41 | 1009.3 |
| 20260508160230 | 10 | 227 | 16.1 | 27.4 | 0.00 | 0.00 | 0.00 | 44 | 1009.3 |
| 20260508155726 | 10 | 221 | 22.5 | 24.1 | 0.00 | 0.00 | 0.00 | 43 | 1009.2 |
| 20260508155223 | 10 | 272 | 20.9 | 37.0 | 0.00 | 0.00 | 0.00 | 43 | 1009.4 |
| 20260508154720 | 10 | 278 | 14.5 | 29.0 | 0.00 | 0.00 | 0.00 | 42 | 1009.6 |
| 20260508154217 | 10 | 223 | 9.7 | 29.0 | 0.00 | 0.00 | 0.00 | 42 | 1009.3 |
| 20260508153714 | 10 | 241 | 30.6 | 40.2 | 0.00 | 0.00 | 0.00 | 40 | 1009.5 |
| 20260508153211 | 10 | 221 | 17.7 | 19.3 | 0.00 | 0.00 | 0.00 | 45 | 1009.5 |
| 20260508152707 | 10 | 253 | 14.5 | 27.4 | 0.00 | 0.00 | 0.00 | 44 | 1009.5 |
| 20260508152203 | 9 | 271 | 4.8 | 16.1 | 0.00 | 0.00 | 0.00 | 47 | 1009.6 |
| 20260508151700 | 9 | 239 | 4.8 | 12.9 | 0.00 | 0.00 | 0.00 | 46 | 1009.5 |
| 20260508151156 | 8 | 208 | 9.7 | 25.7 | 0.00 | 0.00 | 0.00 | 47 | 1009.8 |
| 20260508150653 | 9 | 260 | 9.7 | 24.1 | 0.00 | 0.00 | 0.00 | 47 | 1009.5 |
| 20260508150150 | 8 | 287 | 16.1 | 22.5 | 0.00 | 0.00 | 0.00 | 47 | 1009.7 |
| 20260508145646 | 8 | 271 | 16.1 | 17.7 | 0.00 | 0.00 | 0.00 | 47 | 1009.7 |
| 20260508145142 | 9 | 279 | 20.9 | 24.1 | 0.00 | 0.00 | 0.00 | 46 | 1009.6 |
| 20260508144640 | 8 | 303 | 6.4 | 25.7 | 0.00 | 0.00 | 0.00 | 47 | 1009.8 |
| 20260508144137 | 9 | 296 | 19.3 | 25.7 | 0.00 | 0.00 | 0.00 | 46 | 1009.7 |
| 20260508143635 | 8 | 246 | 8.0 | 14.5 | 0.00 | 0.00 | 0.00 | 48 | 1009.7 |
| 20260508143131 | 8 | 281 | 11.3 | 22.5 | 0.00 | 0.00 | 0.00 | 49 | 1009.5 |
| 20260508142628 | 8 | 300 | 11.3 | 20.9 | 0.00 | 0.00 | 0.00 | 49 | 1010.0 |
| 20260508142125 | 8 | 225 | 17.7 | 17.7 | 0.00 | 0.00 | 0.00 | 51 | 1009.9 |
| 20260508141621 | 8 | 229 | 4.8 | 19.3 | 0.00 | 0.00 | 0.00 | 52 | 1009.8 |
| 20260508141119 | 8 | 226 | 6.4 | 22.5 | 0.00 | 0.00 | 0.00 | 52 | 1009.9 |
| 20260508140616 | 8 | 237 | 6.4 | 22.5 | 0.00 | 0.00 | 0.00 | 53 | 1009.9 |
| 20260508140113 | 7 | 248 | 17.7 | 37.0 | 0.00 | 0.00 | 0.00 | 52 | 1009.9 |
| 20260508135608 | 7 | 217 | 6.4 | 8.0 | 0.00 | 0.00 | 0.00 | 56 | 1010.1 |
| 20260508135104 | 7 | 236 | 19.3 | 20.9 | 0.00 | 0.00 | 0.00 | 54 | 1010.0 |
| 20260508134602 | 7 | 223 | 11.3 | 22.5 | 0.00 | 0.00 | 0.00 | 56 | 1010.0 |
| 20260508134058 | 7 | 206 | 14.5 | 25.7 | 0.00 | 0.00 | 0.00 | 59 | 1010.1 |
| 20260508133555 | 7 | 206 | 9.7 | 25.7 | 0.00 | 0.00 | 0.00 | 58 | 1010.3 |
| 20260508133053 | 7 | 159 | 4.8 | 9.7 | 0.00 | 0.00 | 0.00 | 61 | 1010.1 |
| 20260508132550 | 6 | 221 | 22.5 | 22.5 | 0.00 | 0.00 | 0.00 | 61 | 1010.0 |
| 20260508132046 | 6 | 175 | 3.2 | 9.7 | 0.00 | 0.00 | 0.00 | 63 | 1010.1 |
| 20260508131542 | 6 | 247 | 6.4 | 20.9 | 0.00 | 0.00 | 0.00 | 63 | 1010.3 |
| 20260508131039 | 6 | 237 | 9.7 | 24.1 | 0.00 | 0.00 | 0.00 | 64 | 1010.2 |
| 20260508130536 | 5 | 238 | 4.8 | 12.9 | 0.00 | 0.00 | 0.00 | 65 | 1010.2 |
| 20260508130032 | 5 | 203 | 9.7 | 27.4 | 0.00 | 0.00 | 0.00 | 66 | 1010.4 |
| 20260508125528 | 5 | 214 | 9.7 | 19.3 | 0.00 | 0.00 | 0.00 | 67 | 1010.3 |
| 20260508125026 | 5 | 223 | 8.0 | 14.5 | 0.00 | 0.00 | 0.00 | 69 | 1010.3 |
| 20260508124524 | 4 | 209 | 6.4 | 12.9 | 0.00 | 0.00 | 0.00 | 70 | 1010.4 |